Eneas Marques, Brazil
Current Conditions -  °F | °C
As of 11:00 PM on Monday 26 Jan 2015 (Local Time) from SBCA Reporting Station
Light Rain Light Rain  
Wind Chill: 70°   Ceiling: 10000
Heat Index: 70°   Visibility: 6mi
Dew Point: 66°   Wind: 14mph
Humidity: 88%   Direction: 30°NNE
Pressure: 30"   Gusts: NA
Location:  25.94°S, 53.16°W
Report Text: SBCA 270100Z 03012KT 9999 -RA FEW035 BKN100 21/19 Q1016
Loading
Personal Weather Stations






























Interactive Weather Map New forecast layout! Learn more

10-Day Weather Forecast

Advertisements
Track Severe Weather on mobile